Archival Weather

Heathrow

London, United Kingdom (EGLL)

Report from: Thursday, September 21, 2023 7:20 PM BST
Current time: Saturday, March 2, 2024 10:26 AM GMT

Current weather – Weather history – Daily summaries
Weather forecast

Temperature14.0°C (57.2°F)
Dew point12.0°C (53.6°F)
Winds 4 kts (2.1 m/s, 4.6 mph) Vrb
Winds variableWinds variable from East-Southeast (110°) to South (180°)
Visibility6.2 mi. (10 km)
Clouds Few clouds 3,200 ft. (975 m)
Altimeter29.38 in.Hg (995 mB)
Relative humidity88 %
Density altitude700 ft. (213 m)
Remarks Fully automated report
Corrected report
No significant changes expected in the next two hours
Flight conditions Visual Meteorological Conditions
Raw dataCOR EGLL 211820Z AUTO 14004KT 110V180 9999 FEW032 14/12 Q0995 NOSIG
An error has occurred. This application may no longer respond until reloaded. Reload 🗙